sensor_id;sensor_type;location;lat;lon;timestamp;P1;durP1;ratioP1;P2;durP2;ratioP2
26080;SDS011;13991;51.174;4.438;2023-03-29T00:01:25;12.23;;;2.03;;
26080;SDS011;13991;51.174;4.438;2023-03-29T00:03:55;9.87;;;2.40;;
26080;SDS011;13991;51.174;4.438;2023-03-29T00:06:21;11.33;;;1.60;;
26080;SDS011;13991;51.174;4.438;2023-03-29T00:08:48;10.47;;;2.37;;
26080;SDS011;13991;51.174;4.438;2023-03-29T00:11:19;9.07;;;1.57;;
26080;SDS011;13991;51.174;4.438;2023-03-29T00:13:46;5.07;;;1.93;;
26080;SDS011;13991;51.174;4.438;2023-03-29T00:16:13;3.43;;;1.53;;
26080;SDS011;13991;51.174;4.438;2023-03-29T00:18:38;10.37;;;1.80;;
26080;SDS011;13991;51.174;4.438;2023-03-29T00:21:04;8.93;;;1.30;;
26080;SDS011;13991;51.174;4.438;2023-03-29T00:23:30;4.87;;;1.60;;
26080;SDS011;13991;51.174;4.438;2023-03-29T00:25:56;9.70;;;2.30;;
26080;SDS011;13991;51.174;4.438;2023-03-29T00:28:22;5.50;;;1.50;;
26080;SDS011;13991;51.174;4.438;2023-03-29T00:30:48;6.10;;;1.63;;
26080;SDS011;13991;51.174;4.438;2023-03-29T00:33:16;6.17;;;1.50;;
26080;SDS011;13991;51.174;4.438;2023-03-29T00:35:45;7.57;;;1.50;;
26080;SDS011;13991;51.174;4.438;2023-03-29T00:38:12;6.50;;;1.80;;
26080;SDS011;13991;51.174;4.438;2023-03-29T00:40:42;8.10;;;2.30;;
26080;SDS011;13991;51.174;4.438;2023-03-29T00:43:11;3.90;;;1.23;;
26080;SDS011;13991;51.174;4.438;2023-03-29T00:45:38;6.43;;;2.00;;
26080;SDS011;13991;51.174;4.438;2023-03-29T00:48:05;5.73;;;1.83;;
26080;SDS011;13991;51.174;4.438;2023-03-29T00:55:34;5.63;;;2.17;;
26080;SDS011;13991;51.174;4.438;2023-03-29T00:58:03;6.67;;;1.80;;
26080;SDS011;13991;51.174;4.438;2023-03-29T01:00:36;6.07;;;2.17;;
26080;SDS011;13991;51.174;4.438;2023-03-29T01:03:07;10.83;;;2.27;;
26080;SDS011;13991;51.174;4.438;2023-03-29T01:05:48;11.67;;;2.20;;
26080;SDS011;13991;51.174;4.438;2023-03-29T01:08:21;3.07;;;1.80;;
26080;SDS011;13991;51.174;4.438;2023-03-29T01:14:02;9.90;;;1.50;;
26080;SDS011;13991;51.174;4.438;2023-03-29T01:16:23;8.87;;;2.03;;
26080;SDS011;13991;51.174;4.438;2023-03-29T01:18:52;9.43;;;1.70;;
26080;SDS011;13991;51.174;4.438;2023-03-29T01:31:35;10.73;;;2.20;;
26080;SDS011;13991;51.174;4.438;2023-03-29T01:35:12;7.90;;;2.00;;
26080;SDS011;13991;51.174;4.438;2023-03-29T01:37:22;10.37;;;2.30;;
26080;SDS011;13991;51.174;4.438;2023-03-29T01:40:00;4.97;;;1.87;;
26080;SDS011;13991;51.174;4.438;2023-03-29T01:50:17;7.80;;;2.33;;
26080;SDS011;13991;51.174;4.438;2023-03-29T01:53:10;8.53;;;2.43;;
26080;SDS011;13991;51.174;4.438;2023-03-29T01:55:49;10.03;;;2.80;;
26080;SDS011;13991;51.174;4.438;2023-03-29T01:58:19;9.57;;;1.83;;
26080;SDS011;13991;51.174;4.438;2023-03-29T02:00:48;7.67;;;2.07;;
26080;SDS011;13991;51.174;4.438;2023-03-29T02:03:19;3.23;;;2.07;;
26080;SDS011;13991;51.174;4.438;2023-03-29T02:05:48;9.33;;;1.93;;
26080;SDS011;13991;51.174;4.438;2023-03-29T02:08:15;6.07;;;1.80;;
26080;SDS011;13991;51.174;4.438;2023-03-29T02:10:42;8.63;;;2.13;;
26080;SDS011;13991;51.174;4.438;2023-03-29T02:13:08;4.03;;;1.93;;
26080;SDS011;13991;51.174;4.438;2023-03-29T02:15:34;3.97;;;1.80;;
26080;SDS011;13991;51.174;4.438;2023-03-29T02:18:00;4.13;;;1.70;;
26080;SDS011;13991;51.174;4.438;2023-03-29T02:23:00;5.47;;;1.83;;
26080;SDS011;13991;51.174;4.438;2023-03-29T02:25:38;5.70;;;2.17;;
26080;SDS011;13991;51.174;4.438;2023-03-29T02:28:05;7.23;;;1.80;;
26080;SDS011;13991;51.174;4.438;2023-03-29T02:30:53;7.77;;;2.10;;
26080;SDS011;13991;51.174;4.438;2023-03-29T02:36:05;7.20;;;1.83;;
26080;SDS011;13991;51.174;4.438;2023-03-29T02:38:49;7.30;;;2.67;;
26080;SDS011;13991;51.174;4.438;2023-03-29T02:41:16;4.13;;;1.90;;
26080;SDS011;13991;51.174;4.438;2023-03-29T02:43:43;11.37;;;2.30;;
26080;SDS011;13991;51.174;4.438;2023-03-29T02:46:11;8.63;;;2.47;;
26080;SDS011;13991;51.174;4.438;2023-03-29T02:48:38;9.13;;;2.20;;
26080;SDS011;13991;51.174;4.438;2023-03-29T02:51:12;8.63;;;2.10;;
26080;SDS011;13991;51.174;4.438;2023-03-29T02:53:44;6.47;;;2.30;;
26080;SDS011;13991;51.174;4.438;2023-03-29T02:56:53;7.40;;;2.77;;
26080;SDS011;13991;51.174;4.438;2023-03-29T02:59:27;6.77;;;2.27;;
26080;SDS011;13991;51.174;4.438;2023-03-29T03:01:54;7.70;;;2.67;;
26080;SDS011;13991;51.174;4.438;2023-03-29T03:04:20;5.00;;;2.10;;
26080;SDS011;13991;51.174;4.438;2023-03-29T03:06:46;11.87;;;2.20;;
26080;SDS011;13991;51.174;4.438;2023-03-29T03:09:12;5.33;;;2.27;;
26080;SDS011;13991;51.174;4.438;2023-03-29T03:11:38;8.57;;;2.00;;
26080;SDS011;13991;51.174;4.438;2023-03-29T03:14:04;2.67;;;1.87;;
26080;SDS011;13991;51.174;4.438;2023-03-29T03:16:31;14.43;;;2.57;;
26080;SDS011;13991;51.174;4.438;2023-03-29T03:18:57;6.77;;;2.40;;
26080;SDS011;13991;51.174;4.438;2023-03-29T03:21:23;5.40;;;2.20;;
26080;SDS011;13991;51.174;4.438;2023-03-29T03:23:49;7.50;;;2.20;;
26080;SDS011;13991;51.174;4.438;2023-03-29T03:26:16;8.80;;;2.43;;
26080;SDS011;13991;51.174;4.438;2023-03-29T03:28:42;8.67;;;2.20;;
26080;SDS011;13991;51.174;4.438;2023-03-29T03:31:09;10.87;;;3.13;;
26080;SDS011;13991;51.174;4.438;2023-03-29T03:33:37;8.13;;;2.30;;
26080;SDS011;13991;51.174;4.438;2023-03-29T03:36:05;13.70;;;3.27;;
26080;SDS011;13991;51.174;4.438;2023-03-29T03:38:31;8.57;;;2.63;;
26080;SDS011;13991;51.174;4.438;2023-03-29T03:40:58;10.47;;;3.13;;
26080;SDS011;13991;51.174;4.438;2023-03-29T03:43:24;14.37;;;2.90;;
26080;SDS011;13991;51.174;4.438;2023-03-29T03:45:51;11.90;;;3.37;;
26080;SDS011;13991;51.174;4.438;2023-03-29T03:48:16;5.37;;;2.10;;
26080;SDS011;13991;51.174;4.438;2023-03-29T03:50:46;6.63;;;2.20;;
26080;SDS011;13991;51.174;4.438;2023-03-29T03:53:16;8.50;;;2.43;;
26080;SDS011;13991;51.174;4.438;2023-03-29T03:55:48;17.93;;;2.70;;
26080;SDS011;13991;51.174;4.438;2023-03-29T03:58:16;5.07;;;2.00;;
26080;SDS011;13991;51.174;4.438;2023-03-29T04:00:42;8.73;;;2.37;;
26080;SDS011;13991;51.174;4.438;2023-03-29T04:03:09;13.13;;;2.93;;
26080;SDS011;13991;51.174;4.438;2023-03-29T04:05:38;10.43;;;2.63;;
26080;SDS011;13991;51.174;4.438;2023-03-29T04:08:05;6.57;;;2.47;;
26080;SDS011;13991;51.174;4.438;2023-03-29T04:10:31;12.53;;;3.13;;
26080;SDS011;13991;51.174;4.438;2023-03-29T04:12:58;5.60;;;2.67;;
26080;SDS011;13991;51.174;4.438;2023-03-29T04:15:28;9.60;;;2.47;;
26080;SDS011;13991;51.174;4.438;2023-03-29T04:17:55;8.60;;;2.50;;
26080;SDS011;13991;51.174;4.438;2023-03-29T04:20:21;8.57;;;2.23;;
26080;SDS011;13991;51.174;4.438;2023-03-29T04:22:48;9.87;;;3.00;;
26080;SDS011;13991;51.174;4.438;2023-03-29T04:25:17;7.97;;;2.60;;
26080;SDS011;13991;51.174;4.438;2023-03-29T04:27:44;11.40;;;3.20;;
26080;SDS011;13991;51.174;4.438;2023-03-29T04:30:10;7.33;;;3.03;;
26080;SDS011;13991;51.174;4.438;2023-03-29T04:32:37;10.97;;;3.13;;
26080;SDS011;13991;51.174;4.438;2023-03-29T04:35:03;21.03;;;3.23;;
26080;SDS011;13991;51.174;4.438;2023-03-29T04:37:29;13.53;;;3.17;;
26080;SDS011;13991;51.174;4.438;2023-03-29T04:39:56;17.60;;;3.23;;
26080;SDS011;13991;51.174;4.438;2023-03-29T04:42:24;8.33;;;2.77;;
26080;SDS011;13991;51.174;4.438;2023-03-29T04:44:50;7.13;;;2.80;;
26080;SDS011;13991;51.174;4.438;2023-03-29T04:47:17;8.03;;;3.23;;
26080;SDS011;13991;51.174;4.438;2023-03-29T04:49:43;12.07;;;3.00;;
26080;SDS011;13991;51.174;4.438;2023-03-29T04:52:09;12.13;;;3.27;;
26080;SDS011;13991;51.174;4.438;2023-03-29T04:54:35;9.63;;;3.17;;
26080;SDS011;13991;51.174;4.438;2023-03-29T04:57:01;9.10;;;2.73;;
26080;SDS011;13991;51.174;4.438;2023-03-29T04:59:28;15.70;;;3.23;;
26080;SDS011;13991;51.174;4.438;2023-03-29T05:01:54;8.13;;;3.10;;
26080;SDS011;13991;51.174;4.438;2023-03-29T05:04:20;11.10;;;2.60;;
26080;SDS011;13991;51.174;4.438;2023-03-29T05:06:46;6.23;;;2.97;;
26080;SDS011;13991;51.174;4.438;2023-03-29T05:09:11;12.53;;;3.00;;
26080;SDS011;13991;51.174;4.438;2023-03-29T05:11:37;10.67;;;2.43;;
26080;SDS011;13991;51.174;4.438;2023-03-29T05:14:03;9.40;;;3.13;;
26080;SDS011;13991;51.174;4.438;2023-03-29T05:16:31;8.83;;;2.93;;
26080;SDS011;13991;51.174;4.438;2023-03-29T05:18:58;10.63;;;2.70;;
26080;SDS011;13991;51.174;4.438;2023-03-29T05:21:25;18.80;;;3.17;;
26080;SDS011;13991;51.174;4.438;2023-03-29T05:23:52;9.30;;;3.27;;
26080;SDS011;13991;51.174;4.438;2023-03-29T05:26:18;9.53;;;3.23;;
26080;SDS011;13991;51.174;4.438;2023-03-29T05:28:46;9.90;;;3.40;;
26080;SDS011;13991;51.174;4.438;2023-03-29T05:31:13;8.67;;;3.37;;
26080;SDS011;13991;51.174;4.438;2023-03-29T05:33:39;11.33;;;3.83;;
26080;SDS011;13991;51.174;4.438;2023-03-29T05:36:06;8.40;;;3.50;;
26080;SDS011;13991;51.174;4.438;2023-03-29T05:38:37;9.63;;;3.10;;
26080;SDS011;13991;51.174;4.438;2023-03-29T05:41:03;10.17;;;3.63;;
26080;SDS011;13991;51.174;4.438;2023-03-29T05:43:30;11.33;;;3.37;;
26080;SDS011;13991;51.174;4.438;2023-03-29T05:45:56;15.87;;;3.40;;
26080;SDS011;13991;51.174;4.438;2023-03-29T05:48:22;17.73;;;3.67;;
26080;SDS011;13991;51.174;4.438;2023-03-29T05:50:49;21.83;;;4.37;;
26080;SDS011;13991;51.174;4.438;2023-03-29T05:53:17;15.60;;;3.27;;
26080;SDS011;13991;51.174;4.438;2023-03-29T05:55:44;13.77;;;3.43;;
26080;SDS011;13991;51.174;4.438;2023-03-29T05:58:10;12.07;;;3.70;;
26080;SDS011;13991;51.174;4.438;2023-03-29T06:00:37;20.53;;;3.60;;
26080;SDS011;13991;51.174;4.438;2023-03-29T06:03:04;13.70;;;3.53;;
26080;SDS011;13991;51.174;4.438;2023-03-29T06:05:31;16.83;;;4.50;;
26080;SDS011;13991;51.174;4.438;2023-03-29T06:07:57;16.47;;;3.60;;
26080;SDS011;13991;51.174;4.438;2023-03-29T06:10:23;12.70;;;3.27;;
26080;SDS011;13991;51.174;4.438;2023-03-29T06:12:49;9.97;;;3.40;;
26080;SDS011;13991;51.174;4.438;2023-03-29T06:15:15;22.43;;;4.03;;
26080;SDS011;13991;51.174;4.438;2023-03-29T06:17:41;17.90;;;4.03;;
26080;SDS011;13991;51.174;4.438;2023-03-29T06:20:11;18.87;;;3.60;;
26080;SDS011;13991;51.174;4.438;2023-03-29T06:22:38;14.07;;;3.30;;
26080;SDS011;13991;51.174;4.438;2023-03-29T06:25:05;15.07;;;3.50;;
26080;SDS011;13991;51.174;4.438;2023-03-29T06:27:33;14.60;;;3.87;;
26080;SDS011;13991;51.174;4.438;2023-03-29T06:29:59;15.90;;;3.63;;
26080;SDS011;13991;51.174;4.438;2023-03-29T06:32:26;11.30;;;4.10;;
26080;SDS011;13991;51.174;4.438;2023-03-29T06:34:52;19.47;;;3.97;;
26080;SDS011;13991;51.174;4.438;2023-03-29T06:37:18;13.67;;;4.10;;
26080;SDS011;13991;51.174;4.438;2023-03-29T06:39:45;20.77;;;3.93;;
26080;SDS011;13991;51.174;4.438;2023-03-29T06:42:17;13.47;;;3.43;;
26080;SDS011;13991;51.174;4.438;2023-03-29T06:44:43;15.83;;;3.80;;
26080;SDS011;13991;51.174;4.438;2023-03-29T06:47:09;13.10;;;3.23;;
26080;SDS011;13991;51.174;4.438;2023-03-29T06:49:35;12.80;;;3.40;;
26080;SDS011;13991;51.174;4.438;2023-03-29T06:52:01;15.97;;;4.37;;
26080;SDS011;13991;51.174;4.438;2023-03-29T06:54:27;14.43;;;3.00;;
26080;SDS011;13991;51.174;4.438;2023-03-29T06:56:52;12.53;;;3.37;;
26080;SDS011;13991;51.174;4.438;2023-03-29T06:59:18;10.07;;;3.20;;
26080;SDS011;13991;51.174;4.438;2023-03-29T07:01:43;12.47;;;3.27;;
26080;SDS011;13991;51.174;4.438;2023-03-29T07:04:11;13.27;;;3.27;;
26080;SDS011;13991;51.174;4.438;2023-03-29T07:06:36;13.43;;;4.27;;
26080;SDS011;13991;51.174;4.438;2023-03-29T07:09:03;17.33;;;4.33;;
26080;SDS011;13991;51.174;4.438;2023-03-29T07:11:30;14.10;;;3.80;;
26080;SDS011;13991;51.174;4.438;2023-03-29T07:14:00;16.97;;;4.03;;
26080;SDS011;13991;51.174;4.438;2023-03-29T07:16:27;16.27;;;4.17;;
26080;SDS011;13991;51.174;4.438;2023-03-29T07:18:53;11.43;;;3.70;;
26080;SDS011;13991;51.174;4.438;2023-03-29T07:21:19;15.63;;;4.07;;
26080;SDS011;13991;51.174;4.438;2023-03-29T07:23:45;15.53;;;4.73;;
26080;SDS011;13991;51.174;4.438;2023-03-29T07:26:10;13.90;;;3.70;;
26080;SDS011;13991;51.174;4.438;2023-03-29T07:28:36;13.87;;;3.63;;
26080;SDS011;13991;51.174;4.438;2023-03-29T07:31:07;9.83;;;3.67;;
26080;SDS011;13991;51.174;4.438;2023-03-29T07:33:35;13.87;;;3.70;;
26080;SDS011;13991;51.174;4.438;2023-03-29T07:36:04;17.70;;;4.60;;
26080;SDS011;13991;51.174;4.438;2023-03-29T07:38:31;16.40;;;4.47;;
26080;SDS011;13991;51.174;4.438;2023-03-29T07:40:57;21.13;;;3.97;;
26080;SDS011;13991;51.174;4.438;2023-03-29T07:43:23;12.23;;;4.30;;
26080;SDS011;13991;51.174;4.438;2023-03-29T07:45:49;13.20;;;4.03;;
26080;SDS011;13991;51.174;4.438;2023-03-29T07:48:16;19.23;;;4.17;;
26080;SDS011;13991;51.174;4.438;2023-03-29T07:50:43;19.23;;;5.37;;
26080;SDS011;13991;51.174;4.438;2023-03-29T07:53:09;9.73;;;4.50;;
26080;SDS011;13991;51.174;4.438;2023-03-29T07:55:35;15.67;;;4.57;;
26080;SDS011;13991;51.174;4.438;2023-03-29T07:58:02;18.17;;;3.97;;
26080;SDS011;13991;51.174;4.438;2023-03-29T08:00:28;16.20;;;4.60;;
26080;SDS011;13991;51.174;4.438;2023-03-29T08:02:54;12.83;;;5.07;;
26080;SDS011;13991;51.174;4.438;2023-03-29T08:05:21;13.53;;;4.87;;
26080;SDS011;13991;51.174;4.438;2023-03-29T08:07:47;15.00;;;5.60;;
26080;SDS011;13991;51.174;4.438;2023-03-29T08:10:14;11.00;;;4.30;;
26080;SDS011;13991;51.174;4.438;2023-03-29T08:12:42;16.30;;;4.80;;
26080;SDS011;13991;51.174;4.438;2023-03-29T08:15:09;17.20;;;4.80;;
26080;SDS011;13991;51.174;4.438;2023-03-29T08:17:35;19.17;;;5.83;;
26080;SDS011;13991;51.174;4.438;2023-03-29T08:20:05;13.07;;;4.87;;
26080;SDS011;13991;51.174;4.438;2023-03-29T08:22:33;21.07;;;5.13;;
26080;SDS011;13991;51.174;4.438;2023-03-29T08:24:59;18.63;;;5.40;;
26080;SDS011;13991;51.174;4.438;2023-03-29T08:27:26;21.10;;;5.80;;
26080;SDS011;13991;51.174;4.438;2023-03-29T08:29:52;17.50;;;5.27;;
26080;SDS011;13991;51.174;4.438;2023-03-29T08:32:18;13.73;;;5.37;;
26080;SDS011;13991;51.174;4.438;2023-03-29T08:34:43;15.80;;;4.47;;
26080;SDS011;13991;51.174;4.438;2023-03-29T08:37:10;15.17;;;5.00;;
26080;SDS011;13991;51.174;4.438;2023-03-29T08:39:36;14.13;;;4.80;;
26080;SDS011;13991;51.174;4.438;2023-03-29T08:47:51;13.77;;;4.60;;
26080;SDS011;13991;51.174;4.438;2023-03-29T08:50:31;16.47;;;5.10;;
26080;SDS011;13991;51.174;4.438;2023-03-29T08:53:02;14.63;;;4.97;;
26080;SDS011;13991;51.174;4.438;2023-03-29T08:55:39;14.00;;;4.40;;
26080;SDS011;13991;51.174;4.438;2023-03-29T08:58:08;13.73;;;5.13;;
26080;SDS011;13991;51.174;4.438;2023-03-29T09:00:39;12.80;;;4.23;;
26080;SDS011;13991;51.174;4.438;2023-03-29T09:03:24;14.67;;;4.50;;
26080;SDS011;13991;51.174;4.438;2023-03-29T09:05:52;10.73;;;4.70;;
26080;SDS011;13991;51.174;4.438;2023-03-29T09:08:30;15.43;;;5.13;;
26080;SDS011;13991;51.174;4.438;2023-03-29T09:17:01;22.17;;;4.90;;
26080;SDS011;13991;51.174;4.438;2023-03-29T09:19:53;22.50;;;5.37;;
26080;SDS011;13991;51.174;4.438;2023-03-29T09:25:20;14.77;;;4.67;;
26080;SDS011;13991;51.174;4.438;2023-03-29T09:30:28;9.57;;;4.30;;
26080;SDS011;13991;51.174;4.438;2023-03-29T09:38:22;14.57;;;4.33;;
26080;SDS011;13991;51.174;4.438;2023-03-29T09:40:52;16.13;;;5.20;;
26080;SDS011;13991;51.174;4.438;2023-03-29T09:43:27;17.90;;;4.23;;
26080;SDS011;13991;51.174;4.438;2023-03-29T09:46:01;16.13;;;4.40;;
26080;SDS011;13991;51.174;4.438;2023-03-29T09:48:36;12.07;;;4.17;;
26080;SDS011;13991;51.174;4.438;2023-03-29T09:51:05;16.33;;;4.57;;
26080;SDS011;13991;51.174;4.438;2023-03-29T09:53:32;9.47;;;3.57;;
26080;SDS011;13991;51.174;4.438;2023-03-29T09:55:59;12.23;;;4.83;;
26080;SDS011;13991;51.174;4.438;2023-03-29T09:58:26;18.07;;;4.50;;
26080;SDS011;13991;51.174;4.438;2023-03-29T10:01:00;16.57;;;3.83;;
26080;SDS011;13991;51.174;4.438;2023-03-29T10:03:31;10.33;;;4.00;;
26080;SDS011;13991;51.174;4.438;2023-03-29T10:05:59;24.33;;;5.93;;
26080;SDS011;13991;51.174;4.438;2023-03-29T10:08:27;12.80;;;4.43;;
26080;SDS011;13991;51.174;4.438;2023-03-29T10:11:16;10.70;;;3.23;;
26080;SDS011;13991;51.174;4.438;2023-03-29T10:13:53;17.87;;;4.27;;
26080;SDS011;13991;51.174;4.438;2023-03-29T10:16:28;14.50;;;4.23;;
26080;SDS011;13991;51.174;4.438;2023-03-29T10:21:47;18.77;;;4.07;;
26080;SDS011;13991;51.174;4.438;2023-03-29T10:24:18;18.33;;;4.60;;
26080;SDS011;13991;51.174;4.438;2023-03-29T10:26:56;12.23;;;4.43;;
26080;SDS011;13991;51.174;4.438;2023-03-29T10:29:26;11.13;;;3.60;;
26080;SDS011;13991;51.174;4.438;2023-03-29T10:32:17;11.97;;;3.97;;
26080;SDS011;13991;51.174;4.438;2023-03-29T10:34:49;12.47;;;4.20;;
26080;SDS011;13991;51.174;4.438;2023-03-29T10:37:17;15.37;;;4.23;;
26080;SDS011;13991;51.174;4.438;2023-03-29T10:39:45;10.77;;;4.40;;
26080;SDS011;13991;51.174;4.438;2023-03-29T10:42:13;19.47;;;4.27;;
26080;SDS011;13991;51.174;4.438;2023-03-29T10:44:41;11.27;;;3.77;;
26080;SDS011;13991;51.174;4.438;2023-03-29T10:47:17;12.10;;;3.57;;
26080;SDS011;13991;51.174;4.438;2023-03-29T10:49:54;11.60;;;3.90;;
26080;SDS011;13991;51.174;4.438;2023-03-29T10:52:22;18.33;;;4.70;;
26080;SDS011;13991;51.174;4.438;2023-03-29T10:54:49;17.60;;;4.37;;
26080;SDS011;13991;51.174;4.438;2023-03-29T11:00:08;18.27;;;3.97;;
26080;SDS011;13991;51.174;4.438;2023-03-29T11:06:07;10.60;;;3.70;;
26080;SDS011;13991;51.174;4.438;2023-03-29T11:14:16;11.63;;;3.33;;
26080;SDS011;13991;51.174;4.438;2023-03-29T11:22:28;17.70;;;4.17;;
26080;SDS011;13991;51.174;4.438;2023-03-29T11:30:33;15.23;;;3.53;;
26080;SDS011;13991;51.174;4.438;2023-03-29T11:38:40;14.33;;;3.50;;
26080;SDS011;13991;51.174;4.438;2023-03-29T11:41:30;16.40;;;3.80;;
26080;SDS011;13991;51.174;4.438;2023-03-29T11:44:03;19.57;;;3.83;;
26080;SDS011;13991;51.174;4.438;2023-03-29T11:49:36;9.27;;;3.57;;
26080;SDS011;13991;51.174;4.438;2023-03-29T11:52:36;11.07;;;3.40;;
26080;SDS011;13991;51.174;4.438;2023-03-29T11:55:20;10.73;;;3.53;;
26080;SDS011;13991;51.174;4.438;2023-03-29T11:58:01;7.03;;;3.23;;
26080;SDS011;13991;51.174;4.438;2023-03-29T12:03:12;14.57;;;2.73;;
26080;SDS011;13991;51.174;4.438;2023-03-29T12:05:58;5.40;;;2.30;;
26080;SDS011;13991;51.174;4.438;2023-03-29T12:08:41;10.07;;;2.87;;
26080;SDS011;13991;51.174;4.438;2023-03-29T12:13:53;7.10;;;2.70;;
26080;SDS011;13991;51.174;4.438;2023-03-29T12:16:32;20.07;;;2.70;;
26080;SDS011;13991;51.174;4.438;2023-03-29T12:19:11;9.73;;;2.10;;
26080;SDS011;13991;51.174;4.438;2023-03-29T12:21:51;3.80;;;1.70;;
26080;SDS011;13991;51.174;4.438;2023-03-29T12:24:20;4.97;;;1.80;;
26080;SDS011;13991;51.174;4.438;2023-03-29T12:32:38;7.27;;;2.30;;
26080;SDS011;13991;51.174;4.438;2023-03-29T12:38:29;5.17;;;1.93;;
26080;SDS011;13991;51.174;4.438;2023-03-29T12:40:58;7.53;;;1.93;;
26080;SDS011;13991;51.174;4.438;2023-03-29T12:43:32;5.07;;;1.93;;
26080;SDS011;13991;51.174;4.438;2023-03-29T12:48:52;7.03;;;1.83;;
26080;SDS011;13991;51.174;4.438;2023-03-29T12:51:28;10.13;;;1.60;;
26080;SDS011;13991;51.174;4.438;2023-03-29T12:56:52;8.90;;;1.63;;
26080;SDS011;13991;51.174;4.438;2023-03-29T12:59:37;4.83;;;1.27;;
26080;SDS011;13991;51.174;4.438;2023-03-29T13:07:12;11.73;;;1.70;;
26080;SDS011;13991;51.174;4.438;2023-03-29T13:09:52;4.20;;;1.13;;
26080;SDS011;13991;51.174;4.438;2023-03-29T13:14:52;9.33;;;1.57;;
26080;SDS011;13991;51.174;4.438;2023-03-29T13:17:23;9.33;;;1.87;;
26080;SDS011;13991;51.174;4.438;2023-03-29T13:22:40;3.00;;;1.40;;
26080;SDS011;13991;51.174;4.438;2023-03-29T13:30:36;4.23;;;1.40;;
26080;SDS011;13991;51.174;4.438;2023-03-29T13:36:23;2.03;;;0.63;;
26080;SDS011;13991;51.174;4.438;2023-03-29T13:39:00;7.57;;;1.20;;
26080;SDS011;13991;51.174;4.438;2023-03-29T13:44:04;6.43;;;1.50;;
26080;SDS011;13991;51.174;4.438;2023-03-29T13:46:48;3.80;;;1.00;;
26080;SDS011;13991;51.174;4.438;2023-03-29T13:49:30;5.93;;;1.10;;
26080;SDS011;13991;51.174;4.438;2023-03-29T13:54:29;3.93;;;1.17;;
26080;SDS011;13991;51.174;4.438;2023-03-29T14:04:51;5.27;;;1.67;;
26080;SDS011;13991;51.174;4.438;2023-03-29T14:07:19;8.10;;;2.40;;
26080;SDS011;13991;51.174;4.438;2023-03-29T14:09:50;9.43;;;2.00;;
26080;SDS011;13991;51.174;4.438;2023-03-29T14:12:17;9.63;;;2.07;;
26080;SDS011;13991;51.174;4.438;2023-03-29T14:14:44;13.77;;;2.27;;
26080;SDS011;13991;51.174;4.438;2023-03-29T14:17:18;7.20;;;2.67;;
26080;SDS011;13991;51.174;4.438;2023-03-29T14:19:46;6.03;;;1.50;;
26080;SDS011;13991;51.174;4.438;2023-03-29T14:22:13;6.97;;;2.20;;
26080;SDS011;13991;51.174;4.438;2023-03-29T14:24:45;7.90;;;2.93;;
26080;SDS011;13991;51.174;4.438;2023-03-29T14:27:15;4.57;;;2.20;;
26080;SDS011;13991;51.174;4.438;2023-03-29T14:29:44;11.70;;;2.33;;
26080;SDS011;13991;51.174;4.438;2023-03-29T14:32:12;3.87;;;1.93;;
26080;SDS011;13991;51.174;4.438;2023-03-29T14:34:40;18.57;;;6.27;;
26080;SDS011;13991;51.174;4.438;2023-03-29T14:37:13;5.33;;;2.20;;
26080;SDS011;13991;51.174;4.438;2023-03-29T14:39:50;13.03;;;1.60;;
26080;SDS011;13991;51.174;4.438;2023-03-29T14:42:18;5.77;;;1.50;;
26080;SDS011;13991;51.174;4.438;2023-03-29T14:44:48;4.90;;;1.50;;
26080;SDS011;13991;51.174;4.438;2023-03-29T14:47:33;3.07;;;1.07;;
26080;SDS011;13991;51.174;4.438;2023-03-29T14:50:00;5.67;;;1.53;;
26080;SDS011;13991;51.174;4.438;2023-03-29T14:52:28;5.13;;;1.57;;
26080;SDS011;13991;51.174;4.438;2023-03-29T14:54:55;2.50;;;1.60;;
26080;SDS011;13991;51.174;4.438;2023-03-29T14:57:25;2.17;;;1.37;;
26080;SDS011;13991;51.174;4.438;2023-03-29T15:00:03;6.60;;;2.20;;
26080;SDS011;13991;51.174;4.438;2023-03-29T15:02:49;9.70;;;1.90;;
26080;SDS011;13991;51.174;4.438;2023-03-29T15:07:56;5.67;;;2.20;;
26080;SDS011;13991;51.174;4.438;2023-03-29T15:10:22;5.60;;;2.03;;
26080;SDS011;13991;51.174;4.438;2023-03-29T15:12:48;6.40;;;1.80;;
26080;SDS011;13991;51.174;4.438;2023-03-29T15:15:15;7.37;;;2.63;;
26080;SDS011;13991;51.174;4.438;2023-03-29T15:17:41;6.50;;;2.30;;
26080;SDS011;13991;51.174;4.438;2023-03-29T15:20:20;9.50;;;2.47;;
26080;SDS011;13991;51.174;4.438;2023-03-29T15:25:49;13.80;;;2.90;;
26080;SDS011;13991;51.174;4.438;2023-03-29T15:30:55;7.53;;;2.60;;
26080;SDS011;13991;51.174;4.438;2023-03-29T15:33:22;12.77;;;3.03;;
26080;SDS011;13991;51.174;4.438;2023-03-29T15:35:50;8.70;;;3.00;;
26080;SDS011;13991;51.174;4.438;2023-03-29T15:38:17;11.27;;;2.93;;
26080;SDS011;13991;51.174;4.438;2023-03-29T15:40:46;11.30;;;2.80;;
26080;SDS011;13991;51.174;4.438;2023-03-29T15:43:12;13.80;;;2.60;;
26080;SDS011;13991;51.174;4.438;2023-03-29T15:45:38;11.57;;;2.67;;
26080;SDS011;13991;51.174;4.438;2023-03-29T15:50:59;14.50;;;3.53;;
26080;SDS011;13991;51.174;4.438;2023-03-29T15:53:26;9.40;;;2.70;;
26080;SDS011;13991;51.174;4.438;2023-03-29T15:55:52;8.30;;;2.50;;
26080;SDS011;13991;51.174;4.438;2023-03-29T15:58:29;8.47;;;2.80;;
26080;SDS011;13991;51.174;4.438;2023-03-29T16:01:04;6.17;;;2.37;;
26080;SDS011;13991;51.174;4.438;2023-03-29T16:03:47;9.53;;;2.63;;
26080;SDS011;13991;51.174;4.438;2023-03-29T16:06:14;15.67;;;2.70;;
26080;SDS011;13991;51.174;4.438;2023-03-29T16:08:41;9.00;;;2.63;;
26080;SDS011;13991;51.174;4.438;2023-03-29T16:11:07;11.40;;;2.70;;
26080;SDS011;13991;51.174;4.438;2023-03-29T16:13:33;9.33;;;2.53;;
26080;SDS011;13991;51.174;4.438;2023-03-29T16:15:59;20.23;;;3.10;;
26080;SDS011;13991;51.174;4.438;2023-03-29T16:18:25;12.00;;;2.67;;
26080;SDS011;13991;51.174;4.438;2023-03-29T16:20:51;10.37;;;3.20;;
26080;SDS011;13991;51.174;4.438;2023-03-29T16:23:16;10.20;;;2.83;;
26080;SDS011;13991;51.174;4.438;2023-03-29T16:25:42;15.53;;;3.93;;
26080;SDS011;13991;51.174;4.438;2023-03-29T16:28:08;16.60;;;3.90;;
26080;SDS011;13991;51.174;4.438;2023-03-29T16:30:34;11.03;;;3.03;;
26080;SDS011;13991;51.174;4.438;2023-03-29T16:33:02;15.00;;;3.73;;
26080;SDS011;13991;51.174;4.438;2023-03-29T16:35:31;10.70;;;3.40;;
26080;SDS011;13991;51.174;4.438;2023-03-29T16:37:57;10.83;;;2.90;;
26080;SDS011;13991;51.174;4.438;2023-03-29T16:40:23;17.73;;;3.50;;
26080;SDS011;13991;51.174;4.438;2023-03-29T16:42:50;10.97;;;3.53;;
26080;SDS011;13991;51.174;4.438;2023-03-29T16:45:16;10.17;;;2.67;;
26080;SDS011;13991;51.174;4.438;2023-03-29T16:47:43;16.67;;;3.60;;
26080;SDS011;13991;51.174;4.438;2023-03-29T16:50:13;17.50;;;2.33;;
26080;SDS011;13991;51.174;4.438;2023-03-29T16:52:40;6.13;;;2.33;;
26080;SDS011;13991;51.174;4.438;2023-03-29T16:55:07;8.20;;;2.77;;
26080;SDS011;13991;51.174;4.438;2023-03-29T16:57:36;9.97;;;3.07;;
26080;SDS011;13991;51.174;4.438;2023-03-29T17:00:04;6.80;;;2.90;;
26080;SDS011;13991;51.174;4.438;2023-03-29T17:02:31;6.87;;;2.97;;
26080;SDS011;13991;51.174;4.438;2023-03-29T17:04:57;12.57;;;4.17;;
26080;SDS011;13991;51.174;4.438;2023-03-29T17:07:22;16.07;;;3.77;;
26080;SDS011;13991;51.174;4.438;2023-03-29T17:09:49;14.07;;;3.97;;
26080;SDS011;13991;51.174;4.438;2023-03-29T17:12:17;19.83;;;3.77;;
26080;SDS011;13991;51.174;4.438;2023-03-29T17:14:44;15.03;;;3.20;;
26080;SDS011;13991;51.174;4.438;2023-03-29T17:17:10;25.70;;;3.33;;
26080;SDS011;13991;51.174;4.438;2023-03-29T17:19:35;11.23;;;2.90;;
26080;SDS011;13991;51.174;4.438;2023-03-29T17:22:01;21.90;;;3.03;;
26080;SDS011;13991;51.174;4.438;2023-03-29T17:24:27;14.77;;;3.00;;
26080;SDS011;13991;51.174;4.438;2023-03-29T17:26:53;14.10;;;2.80;;